createdAt,value
2019-01-04T00:01:43.010Z,9.20
2019-01-04T00:04:18.387Z,7.70
2019-01-04T00:06:50.241Z,9.00
2019-01-04T00:09:22.087Z,10.17
2019-01-04T00:11:53.956Z,10.13
2019-01-04T00:14:25.917Z,8.87
2019-01-04T00:16:57.763Z,9.93
2019-01-04T00:19:29.678Z,7.37
2019-01-04T00:22:01.480Z,8.00
2019-01-04T00:24:33.351Z,8.77
2019-01-04T00:27:05.240Z,8.63
2019-01-04T00:29:37.098Z,9.07
2019-01-04T00:32:09.830Z,7.73
2019-01-04T00:34:41.698Z,9.97
2019-01-04T00:37:13.538Z,10.67
2019-01-04T00:39:45.409Z,8.63
2019-01-04T00:42:17.233Z,7.77
2019-01-04T00:44:49.111Z,11.37
2019-01-04T00:47:21.000Z,9.27
2019-01-04T00:49:52.798Z,9.17
2019-01-04T00:52:24.650Z,8.77
2019-01-04T00:54:58.009Z,8.40
2019-01-04T00:58:13.380Z,11.23
2019-01-04T01:01:46.421Z,9.53
2019-01-04T01:05:14.325Z,9.33
2019-01-04T01:08:29.276Z,9.30
2019-01-04T01:11:54.095Z,10.17
2019-01-04T01:15:15.061Z,12.70
2019-01-04T01:19:03.510Z,12.83
2019-01-04T01:22:48.511Z,12.43
2019-01-04T01:26:13.260Z,11.73
2019-01-04T01:29:47.177Z,15.63
2019-01-04T01:32:55.176Z,15.07
2019-01-04T01:36:18.667Z,12.70
2019-01-04T01:39:42.804Z,11.97
2019-01-04T01:43:22.741Z,12.70
2019-01-04T01:46:54.807Z,14.27
2019-01-04T01:50:20.462Z,16.87
2019-01-04T01:52:52.550Z,13.03
2019-01-04T01:55:24.427Z,15.33
2019-01-04T01:57:56.258Z,14.10
2019-01-04T02:00:28.119Z,15.13
2019-01-04T02:02:59.978Z,19.20
2019-01-04T02:05:31.786Z,16.53
2019-01-04T02:08:03.643Z,16.13
2019-01-04T02:10:35.485Z,16.97
2019-01-04T02:13:07.369Z,17.57
2019-01-04T02:15:39.226Z,18.53
2019-01-04T02:18:11.094Z,22.80
2019-01-04T02:20:42.910Z,20.20
2019-01-04T02:23:14.776Z,17.10
2019-01-04T02:25:46.634Z,26.53
2019-01-04T02:28:18.460Z,24.20
2019-01-04T02:30:50.303Z,28.27
2019-01-04T02:33:22.156Z,29.03
2019-01-04T02:35:53.988Z,33.80
2019-01-04T02:38:25.855Z,28.07
2019-01-04T02:40:57.678Z,33.87
2019-01-04T02:43:29.546Z,29.67
2019-01-04T02:46:01.428Z,25.97
2019-01-04T02:48:33.314Z,30.73
2019-01-04T02:51:05.129Z,38.80
2019-01-04T02:53:37.000Z,36.47
2019-01-04T02:56:08.898Z,36.63
2019-01-04T02:58:40.732Z,37.50
2019-01-04T03:01:12.614Z,43.97
2019-01-04T03:03:44.482Z,33.30
2019-01-04T03:06:16.316Z,35.50
2019-01-04T03:08:48.181Z,34.63
2019-01-04T03:11:19.991Z,30.50
2019-01-04T03:13:51.855Z,31.90
2019-01-04T03:16:23.748Z,31.80
2019-01-04T03:18:55.707Z,29.17
2019-01-04T03:21:27.526Z,30.07
2019-01-04T03:23:59.441Z,29.30
2019-01-04T03:26:31.254Z,31.00
2019-01-04T03:29:03.074Z,28.27
2019-01-04T03:31:34.954Z,29.57
2019-01-04T03:34:06.754Z,27.93
2019-01-04T03:36:38.599Z,30.70
2019-01-04T03:39:10.463Z,25.03
2019-01-04T03:41:42.292Z,22.87
2019-01-04T03:44:14.157Z,26.10
2019-01-04T03:46:45.998Z,30.10
2019-01-04T03:49:17.813Z,22.43
2019-01-04T03:51:49.647Z,30.37
2019-01-04T03:54:21.522Z,30.87
2019-01-04T03:56:53.377Z,31.70
2019-01-04T03:59:25.216Z,26.90
2019-01-04T04:01:57.016Z,31.43
2019-01-04T04:04:28.835Z,27.80
2019-01-04T04:07:00.670Z,29.07
2019-01-04T04:09:32.525Z,28.97
2019-01-04T04:12:04.341Z,28.10
2019-01-04T04:14:36.195Z,28.40
2019-01-04T04:17:08.065Z,30.17
2019-01-04T04:19:39.903Z,31.17
2019-01-04T04:22:11.731Z,27.63
2019-01-04T04:24:43.589Z,25.40
2019-01-04T04:27:15.399Z,26.13
2019-01-04T04:29:47.229Z,27.67
2019-01-04T04:32:19.066Z,24.83
2019-01-04T04:34:50.925Z,24.53
2019-01-04T04:37:22.759Z,22.77
2019-01-04T04:39:54.625Z,24.50
2019-01-04T04:42:26.425Z,23.53
2019-01-04T04:44:58.275Z,23.27
2019-01-04T04:47:30.113Z,21.47
2019-01-04T04:50:02.095Z,20.90
2019-01-04T04:52:34.894Z,21.23
2019-01-04T04:55:06.967Z,18.50
2019-01-04T04:57:38.847Z,21.30
2019-01-04T05:00:10.886Z,20.60
2019-01-04T05:02:44.408Z,19.50
2019-01-04T05:05:16.247Z,22.07
2019-01-04T05:07:48.077Z,24.07
2019-01-04T05:10:19.945Z,21.60
2019-01-04T05:12:51.810Z,20.27
2019-01-04T05:15:23.637Z,20.20
2019-01-04T05:17:55.501Z,21.10
2019-01-04T05:20:27.340Z,24.57
2019-01-04T05:22:59.173Z,23.77
2019-01-04T05:25:31.033Z,22.83
2019-01-04T05:28:03.005Z,23.23
2019-01-04T05:30:34.865Z,26.50
2019-01-04T05:33:06.700Z,29.07
2019-01-04T05:35:38.547Z,22.87
2019-01-04T05:38:10.377Z,21.50
2019-01-04T05:40:42.232Z,22.67
2019-01-04T05:43:14.035Z,25.77
2019-01-04T05:45:45.936Z,19.70
2019-01-04T05:48:17.805Z,20.80
2019-01-04T05:50:49.632Z,24.13
2019-01-04T05:53:21.507Z,23.20
2019-01-04T05:55:53.357Z,20.73
2019-01-04T05:58:25.210Z,22.13
2019-01-04T06:00:57.185Z,26.33
2019-01-04T06:03:29.042Z,21.43
2019-01-04T06:06:00.843Z,22.70
2019-01-04T06:08:32.681Z,21.27
2019-01-04T06:11:04.591Z,23.27
2019-01-04T06:13:36.420Z,23.93
2019-01-04T06:16:08.272Z,21.67
2019-01-04T06:18:40.144Z,20.40
2019-01-04T06:21:12.002Z,21.30
2019-01-04T06:23:43.886Z,21.37
2019-01-04T06:26:15.769Z,22.23
2019-01-04T06:28:47.608Z,20.67
2019-01-04T06:31:19.496Z,20.23
2019-01-04T06:33:51.408Z,23.70
2019-01-04T06:36:23.301Z,19.30
2019-01-04T06:38:55.175Z,25.03
2019-01-04T06:41:27.005Z,20.70
2019-01-04T06:43:58.874Z,24.43
2019-01-04T06:46:30.737Z,21.87
2019-01-04T06:49:02.597Z,26.17
2019-01-04T06:51:34.434Z,21.20
2019-01-04T06:54:09.114Z,23.20
2019-01-04T06:56:40.980Z,22.77
2019-01-04T06:59:12.824Z,21.63
2019-01-04T07:01:44.643Z,21.17
2019-01-04T07:04:16.440Z,21.67
2019-01-04T07:06:48.350Z,22.27
2019-01-04T07:09:20.243Z,19.13
2019-01-04T07:11:52.141Z,21.63
2019-01-04T07:14:23.967Z,21.10
2019-01-04T07:16:55.850Z,15.30
2019-01-04T07:19:27.718Z,17.33
2019-01-04T07:21:59.552Z,19.30
2019-01-04T07:24:31.416Z,20.13
2019-01-04T07:27:03.256Z,21.23
2019-01-04T07:29:35.148Z,23.17
2019-01-04T07:32:06.949Z,21.23
2019-01-04T07:34:39.074Z,17.13
2019-01-04T07:37:10.932Z,16.80
2019-01-04T07:39:42.786Z,19.13
2019-01-04T07:42:14.653Z,18.43
2019-01-04T07:44:46.486Z,16.90
2019-01-04T07:47:18.379Z,18.60
2019-01-04T07:49:50.210Z,17.27
2019-01-04T07:52:22.076Z,16.33
2019-01-04T07:54:55.563Z,18.87
2019-01-04T07:57:27.809Z,18.77
2019-01-04T07:59:59.655Z,19.43
2019-01-04T08:02:51.530Z,21.37
2019-01-04T08:05:26.934Z,21.03
2019-01-04T08:07:58.856Z,18.37
2019-01-04T08:10:30.770Z,18.23
2019-01-04T08:13:02.642Z,20.33
2019-01-04T08:15:34.469Z,18.90
2019-01-04T08:18:06.321Z,18.33
2019-01-04T08:20:38.143Z,18.83
2019-01-04T08:23:09.982Z,19.17
2019-01-04T08:25:41.906Z,18.17
2019-01-04T08:28:13.800Z,20.00
2019-01-04T08:30:45.635Z,19.47
2019-01-04T08:33:17.653Z,20.33
2019-01-04T08:35:49.530Z,20.23
2019-01-04T08:38:21.423Z,21.17
2019-01-04T08:40:53.285Z,21.47
2019-01-04T08:43:25.186Z,21.43
2019-01-04T08:45:57.104Z,20.80
2019-01-04T08:48:28.942Z,21.13
2019-01-04T08:51:02.451Z,20.87
2019-01-04T08:54:02.077Z,23.00
2019-01-04T08:56:37.047Z,22.90
2019-01-04T08:59:08.886Z,24.57
2019-01-04T09:01:40.723Z,19.87
2019-01-04T09:04:12.626Z,20.13
2019-01-04T09:06:44.497Z,19.93
2019-01-04T09:09:16.375Z,19.37
2019-01-04T09:11:48.254Z,18.00
2019-01-04T09:14:20.115Z,21.43
2019-01-04T09:16:51.975Z,16.97
2019-01-04T09:19:23.849Z,16.23
2019-01-04T09:21:55.741Z,20.17
2019-01-04T09:24:27.612Z,16.17
2019-01-04T09:26:59.491Z,18.03
2019-01-04T09:29:31.349Z,19.63
2019-01-04T09:32:03.252Z,14.97
2019-01-04T09:34:35.179Z,15.73
2019-01-04T09:37:07.058Z,17.00
2019-01-04T09:39:38.952Z,16.23
2019-01-04T09:42:14.655Z,16.70
2019-01-04T09:44:47.298Z,13.27
2019-01-04T09:47:19.240Z,14.93
2019-01-04T09:49:51.114Z,16.97
2019-01-04T09:52:22.948Z,17.37
2019-01-04T09:54:54.809Z,13.77
2019-01-04T09:57:26.717Z,16.40
2019-01-04T09:59:58.574Z,14.47
2019-01-04T10:02:30.438Z,14.47
2019-01-04T10:05:02.302Z,14.33
2019-01-04T10:07:34.142Z,13.33
2019-01-04T10:10:07.188Z,15.53
2019-01-04T10:12:39.943Z,14.17
2019-01-04T10:15:15.486Z,14.60
2019-01-04T10:17:47.413Z,15.40
2019-01-04T10:20:19.245Z,14.63
2019-01-04T10:22:51.137Z,14.17
2019-01-04T10:25:23.003Z,13.80
2019-01-04T10:27:54.830Z,14.53
2019-01-04T10:30:28.351Z,15.07
2019-01-04T10:33:00.214Z,15.57
2019-01-04T10:35:32.205Z,13.77
2019-01-04T10:38:04.119Z,13.40
2019-01-04T10:40:35.970Z,13.17
2019-01-04T10:43:07.865Z,13.23
2019-01-04T10:45:39.728Z,13.17
2019-01-04T10:48:11.557Z,15.57
2019-01-04T10:50:43.421Z,13.53
2019-01-04T10:53:15.974Z,13.10
2019-01-04T10:55:47.900Z,11.30
2019-01-04T10:58:19.819Z,14.03
2019-01-04T11:00:51.695Z,14.10
2019-01-04T11:03:23.566Z,14.33
2019-01-04T11:05:55.424Z,14.43
2019-01-04T11:08:27.261Z,13.37
2019-01-04T11:10:59.101Z,13.67
2019-01-04T11:13:30.939Z,12.90
2019-01-04T11:16:02.819Z,12.53
2019-01-04T11:18:34.661Z,12.50
2019-01-04T11:21:10.045Z,12.37
2019-01-04T11:24:18.502Z,10.20
2019-01-04T11:27:09.457Z,9.30
2019-01-04T11:30:51.132Z,10.23
2019-01-04T11:34:07.135Z,10.03
2019-01-04T11:37:38.378Z,10.63
2019-01-04T11:40:47.807Z,9.60
2019-01-04T11:44:22.293Z,9.43
2019-01-04T11:47:26.261Z,11.20
2019-01-04T11:50:40.321Z,12.80
2019-01-04T11:53:18.347Z,11.27
2019-01-04T11:55:50.301Z,12.17
2019-01-04T11:58:22.209Z,11.30
2019-01-04T12:00:54.047Z,9.73
2019-01-04T12:03:25.916Z,10.10
2019-01-04T12:05:57.808Z,9.23
2019-01-04T12:08:29.675Z,9.77
2019-01-04T12:11:02.332Z,9.30
2019-01-04T12:13:34.193Z,8.90
2019-01-04T12:16:06.108Z,10.23
2019-01-04T12:18:37.991Z,9.83
2019-01-04T12:21:09.898Z,10.17
2019-01-04T12:23:41.881Z,11.03
2019-01-04T12:26:13.834Z,10.20
2019-01-04T12:28:45.866Z,9.97
2019-01-04T12:31:17.799Z,11.17
2019-01-04T12:33:49.717Z,10.30
2019-01-04T12:36:21.693Z,9.63
2019-01-04T12:38:53.675Z,10.47
2019-01-04T12:41:25.714Z,11.87
2019-01-04T12:43:57.641Z,10.20
2019-01-04T12:46:29.810Z,10.53
2019-01-04T12:49:01.738Z,11.33
2019-01-04T12:51:33.594Z,11.27
2019-01-04T12:54:05.549Z,13.20
2019-01-04T12:56:37.480Z,13.53
2019-01-04T12:59:10.267Z,10.87
2019-01-04T13:01:42.188Z,12.83
2019-01-04T13:04:14.107Z,12.10
2019-01-04T13:06:46.078Z,13.70
2019-01-04T13:09:17.999Z,12.63
2019-01-04T13:11:49.914Z,14.33
2019-01-04T13:14:21.930Z,14.80
2019-01-04T13:16:53.863Z,14.27
2019-01-04T13:19:26.001Z,14.10
2019-01-04T13:21:58.300Z,13.03
2019-01-04T13:24:30.200Z,11.90
2019-01-04T13:27:02.103Z,12.73
2019-01-04T13:29:33.998Z,15.93
2019-01-04T13:32:05.967Z,14.67
2019-01-04T13:34:37.840Z,15.60
2019-01-04T13:37:09.719Z,16.23
2019-01-04T13:39:41.591Z,14.67
2019-01-04T13:42:13.460Z,13.93
2019-01-04T13:44:45.324Z,14.00
2019-01-04T13:47:17.202Z,17.93
2019-01-04T13:49:49.061Z,14.77
2019-01-04T13:52:21.015Z,17.53
2019-01-04T13:54:54.551Z,15.27
2019-01-04T13:57:26.511Z,15.60
2019-01-04T13:59:58.417Z,18.23
2019-01-04T14:02:30.293Z,16.37
2019-01-04T14:05:02.191Z,18.17
2019-01-04T14:07:34.195Z,18.97
2019-01-04T14:10:07.311Z,19.00
2019-01-04T14:12:39.175Z,20.30
2019-01-04T14:15:11.318Z,20.67
2019-01-04T14:17:43.164Z,21.43
2019-01-04T14:20:15.017Z,20.23
2019-01-04T14:22:46.891Z,21.00
2019-01-04T14:25:18.769Z,20.40
2019-01-04T14:27:50.638Z,19.60
2019-01-04T14:30:22.879Z,21.53
2019-01-04T14:32:54.764Z,26.10
2019-01-04T14:35:26.661Z,20.80
2019-01-04T14:37:58.577Z,23.83
2019-01-04T14:40:30.447Z,27.00
2019-01-04T14:43:02.330Z,24.00
2019-01-04T14:45:34.203Z,23.67
2019-01-04T14:48:06.105Z,24.73
2019-01-04T14:50:37.957Z,23.03
2019-01-04T14:53:09.828Z,21.00
2019-01-04T14:55:41.749Z,21.77
2019-01-04T14:58:13.581Z,21.37
2019-01-04T15:00:45.515Z,21.00
2019-01-04T15:03:17.351Z,22.93
2019-01-04T15:05:50.567Z,22.53
2019-01-04T15:08:22.494Z,21.87
2019-01-04T15:10:54.427Z,23.10
2019-01-04T15:13:26.303Z,23.53
2019-01-04T15:15:58.157Z,22.40
2019-01-04T15:18:29.978Z,24.90
2019-01-04T15:21:01.827Z,23.13
2019-01-04T15:23:33.685Z,26.00
2019-01-04T15:26:05.532Z,25.83
2019-01-04T15:28:37.338Z,22.93
2019-01-04T15:31:09.204Z,23.53
2019-01-04T15:33:41.074Z,23.57
2019-01-04T15:36:12.902Z,26.73
2019-01-04T15:38:44.747Z,23.97
2019-01-04T15:41:16.624Z,25.40
2019-01-04T15:43:48.523Z,25.60
2019-01-04T15:46:19.835Z,24.53
2019-01-04T15:48:52.388Z,24.20
2019-01-04T15:51:24.235Z,23.70
2019-01-04T15:53:56.101Z,28.63
2019-01-04T15:56:27.968Z,29.40
2019-01-04T15:58:59.875Z,26.50
2019-01-04T16:01:31.841Z,26.60
2019-01-04T16:04:03.767Z,23.83
2019-01-04T16:06:35.712Z,25.57
2019-01-04T16:09:09.666Z,25.70
2019-01-04T16:11:41.732Z,23.30
2019-01-04T16:14:14.885Z,23.80
2019-01-04T16:16:46.910Z,23.43
2019-01-04T16:19:18.786Z,23.57
2019-01-04T16:21:50.822Z,22.97
2019-01-04T16:24:31.826Z,24.23
2019-01-04T16:27:03.831Z,22.53
2019-01-04T16:29:35.702Z,23.23
2019-01-04T16:32:07.577Z,25.43
2019-01-04T16:34:39.492Z,25.53
2019-01-04T16:37:11.476Z,23.60
2019-01-04T16:39:43.368Z,24.50
2019-01-04T16:42:15.228Z,25.23
2019-01-04T16:44:47.193Z,28.33
2019-01-04T16:47:19.094Z,25.87
2019-01-04T16:49:50.958Z,27.77
2019-01-04T16:52:22.873Z,27.67
2019-01-04T16:54:58.019Z,29.40
2019-01-04T16:57:29.966Z,27.63
2019-01-04T17:00:01.900Z,29.93
2019-01-04T17:02:34.109Z,27.77
2019-01-04T17:05:07.704Z,28.33
2019-01-04T17:07:39.535Z,28.03
2019-01-04T17:10:11.424Z,28.70
2019-01-04T17:12:43.321Z,31.60
2019-01-04T17:15:32.385Z,30.20
2019-01-04T17:18:11.923Z,32.33
2019-01-04T17:20:38.183Z,29.30
2019-01-04T17:23:10.148Z,32.00
2019-01-04T17:25:42.048Z,30.00
2019-01-04T17:28:13.958Z,32.23
2019-01-04T17:30:45.794Z,34.40
2019-01-04T17:33:17.611Z,33.03
2019-01-04T17:35:49.534Z,36.37
2019-01-04T17:38:21.413Z,34.60
2019-01-04T17:40:53.223Z,37.40
2019-01-04T17:43:25.075Z,34.40
2019-01-04T17:45:56.940Z,39.60
2019-01-04T17:48:28.792Z,37.23
2019-01-04T17:51:00.637Z,38.93
2019-01-04T17:53:32.475Z,39.40
2019-01-04T17:56:04.352Z,43.73
2019-01-04T17:58:36.175Z,40.50
2019-01-04T18:01:08.059Z,42.90
2019-01-04T18:03:39.892Z,43.27
2019-01-04T18:06:11.766Z,41.17
2019-01-04T18:08:43.721Z,45.27
2019-01-04T18:11:15.640Z,45.57
2019-01-04T18:13:47.566Z,43.63
2019-01-04T18:16:19.406Z,47.07
2019-01-04T18:18:51.367Z,47.20
2019-01-04T18:21:23.205Z,50.50
2019-01-04T18:23:55.034Z,52.43
2019-01-04T18:26:26.900Z,47.87
2019-01-04T18:28:58.755Z,46.73
2019-01-04T18:31:30.626Z,47.73
2019-01-04T18:34:02.490Z,50.17
2019-01-04T18:36:34.361Z,50.80
2019-01-04T18:39:07.183Z,53.00
2019-01-04T18:41:39.044Z,51.67
2019-01-04T18:44:10.931Z,51.60
2019-01-04T18:46:42.860Z,51.30
2019-01-04T18:49:14.722Z,48.83
2019-01-04T18:51:46.610Z,51.27
2019-01-04T18:54:18.462Z,53.70
2019-01-04T18:56:50.300Z,49.70
2019-01-04T18:59:21.601Z,55.50
2019-01-04T19:01:53.444Z,50.53
2019-01-04T19:04:25.287Z,51.47
2019-01-04T19:06:57.117Z,55.33
2019-01-04T19:09:28.952Z,56.60
2019-01-04T19:12:00.814Z,57.40
2019-01-04T19:14:34.313Z,58.13
2019-01-04T19:17:06.199Z,56.90
2019-01-04T19:19:38.079Z,60.23
2019-01-04T19:22:09.942Z,59.03
2019-01-04T19:24:41.881Z,59.83
2019-01-04T19:27:13.823Z,54.77
2019-01-04T19:29:45.659Z,58.40
2019-01-04T19:32:17.519Z,61.70
2019-01-04T19:34:49.438Z,58.20
2019-01-04T19:37:21.341Z,57.47
2019-01-04T19:39:53.256Z,61.23
2019-01-04T19:42:25.182Z,59.80
2019-01-04T19:44:57.099Z,62.17
2019-01-04T19:47:29.139Z,57.33
2019-01-04T19:50:07.642Z,56.70
2019-01-04T19:52:39.625Z,56.50
2019-01-04T19:55:11.495Z,53.30
2019-01-04T19:57:43.374Z,60.03
2019-01-04T20:00:15.252Z,57.30
2019-01-04T20:02:47.129Z,55.83
2019-01-04T20:07:05.588Z,58.87
2019-01-04T20:11:25.292Z,57.63
2019-01-04T20:15:51.090Z,52.77
2019-01-04T20:18:43.378Z,56.43
2019-01-04T20:21:30.471Z,61.87
2019-01-04T20:24:24.006Z,58.77
2019-01-04T20:27:18.917Z,58.57
2019-01-04T20:30:08.331Z,59.80
2019-01-04T20:33:10.976Z,55.93
2019-01-04T20:36:00.201Z,52.67
2019-01-04T20:38:55.083Z,56.57
2019-01-04T20:41:43.045Z,57.67
2019-01-04T20:44:46.059Z,55.97
2019-01-04T20:47:36.941Z,56.97
2019-01-04T20:50:25.222Z,52.93
2019-01-04T20:53:27.843Z,51.43
2019-01-04T20:56:22.308Z,51.07
2019-01-04T20:59:11.767Z,49.70
2019-01-04T21:02:01.297Z,49.90
2019-01-04T21:05:01.280Z,48.67
2019-01-04T21:08:04.046Z,49.90
2019-01-04T21:11:10.064Z,45.43
2019-01-04T21:14:11.079Z,48.23
2019-01-04T21:17:00.469Z,51.30
2019-01-04T21:20:07.175Z,47.10
2019-01-04T21:22:57.946Z,52.83
2019-01-04T21:25:50.471Z,50.40
2019-01-04T21:28:43.228Z,48.47
2019-01-04T21:31:33.760Z,51.30
2019-01-04T21:34:42.809Z,45.60
2019-01-04T21:37:36.319Z,49.47
2019-01-04T21:40:25.596Z,49.17
2019-01-04T21:43:25.418Z,52.27
2019-01-04T21:46:22.987Z,49.47
2019-01-04T21:49:15.712Z,50.70
2019-01-04T21:52:04.658Z,53.00
2019-01-04T21:54:53.861Z,50.87
2019-01-04T21:57:43.097Z,53.20
2019-01-04T22:00:32.570Z,55.57
2019-01-04T22:03:18.974Z,56.40
2019-01-04T22:06:23.410Z,56.93
2019-01-04T22:09:15.280Z,56.17
2019-01-04T22:12:12.167Z,54.07
2019-01-04T22:15:20.941Z,49.33
2019-01-04T22:18:17.523Z,51.87
2019-01-04T22:21:08.277Z,52.93
2019-01-04T22:24:09.452Z,54.17
2019-01-04T22:26:57.949Z,52.60
2019-01-04T22:29:41.843Z,55.13
2019-01-04T22:32:30.528Z,56.47
2019-01-04T22:35:18.980Z,54.53
2019-01-04T22:38:12.697Z,54.43
2019-01-04T22:41:01.850Z,56.83
2019-01-04T22:43:47.656Z,52.23
2019-01-04T22:46:47.287Z,53.57
2019-01-04T22:49:36.439Z,52.13
2019-01-04T22:52:39.110Z,54.97
2019-01-04T22:55:28.361Z,51.53
2019-01-04T22:58:15.241Z,49.70
2019-01-04T23:01:04.903Z,47.10
2019-01-04T23:03:54.142Z,55.03
2019-01-04T23:06:47.903Z,44.77
2019-01-04T23:09:37.439Z,50.33
2019-01-04T23:12:42.148Z,46.87
2019-01-04T23:15:51.320Z,48.33
2019-01-04T23:18:40.661Z,52.47
2019-01-04T23:22:07.474Z,53.73
2019-01-04T23:25:04.587Z,54.90
2019-01-04T23:28:00.487Z,51.13
2019-01-04T23:30:43.060Z,56.13
2019-01-04T23:33:36.592Z,48.80
2019-01-04T23:36:25.882Z,51.67
2019-01-04T23:39:22.772Z,51.83
2019-01-04T23:42:12.245Z,47.00
2019-01-04T23:45:21.089Z,53.70
2019-01-04T23:48:07.526Z,51.27
2019-01-04T23:51:13.812Z,47.00
2019-01-04T23:54:03.221Z,48.03
2019-01-04T23:56:52.509Z,53.37
2019-01-04T23:59:46.338Z,45.33
